sensor_id;sensor_type;location;lat;lon;timestamp;P1;durP1;ratioP1;P2;durP2;ratioP2
64959;SDS011;51487;52.266;10.542;2023-08-24T00:01:28;7.28;;;2.20;;
64959;SDS011;51487;52.266;10.542;2023-08-24T00:03:53;5.63;;;2.22;;
64959;SDS011;51487;52.266;10.542;2023-08-24T00:06:19;5.00;;;2.03;;
64959;SDS011;51487;52.266;10.542;2023-08-24T00:08:44;7.50;;;2.40;;
64959;SDS011;51487;52.266;10.542;2023-08-24T00:11:10;5.35;;;2.03;;
64959;SDS011;51487;52.266;10.542;2023-08-24T00:13:40;2.63;;;2.03;;
64959;SDS011;51487;52.266;10.542;2023-08-24T00:16:13;3.58;;;2.13;;
64959;SDS011;51487;52.266;10.542;2023-08-24T00:18:40;7.43;;;2.22;;
64959;SDS011;51487;52.266;10.542;2023-08-24T00:21:07;5.60;;;2.20;;
64959;SDS011;51487;52.266;10.542;2023-08-24T00:23:33;4.10;;;2.22;;
64959;SDS011;51487;52.266;10.542;2023-08-24T00:25:58;5.85;;;2.22;;
64959;SDS011;51487;52.266;10.542;2023-08-24T00:28:25;3.92;;;2.03;;
64959;SDS011;51487;52.266;10.542;2023-08-24T00:30:51;5.53;;;2.58;;
64959;SDS011;51487;52.266;10.542;2023-08-24T00:33:17;4.57;;;2.17;;
64959;SDS011;51487;52.266;10.542;2023-08-24T00:35:42;7.13;;;2.40;;
64959;SDS011;51487;52.266;10.542;2023-08-24T00:38:08;7.05;;;2.22;;
64959;SDS011;51487;52.266;10.542;2023-08-24T00:40:34;3.85;;;2.10;;
64959;SDS011;51487;52.266;10.542;2023-08-24T00:42:59;8.38;;;2.00;;
64959;SDS011;51487;52.266;10.542;2023-08-24T00:45:25;5.28;;;2.00;;
64959;SDS011;51487;52.266;10.542;2023-08-24T00:47:51;6.53;;;1.92;;
64959;SDS011;51487;52.266;10.542;2023-08-24T00:50:17;7.15;;;2.28;;
64959;SDS011;51487;52.266;10.542;2023-08-24T00:52:44;6.07;;;2.10;;
64959;SDS011;51487;52.266;10.542;2023-08-24T00:55:12;7.32;;;2.33;;
64959;SDS011;51487;52.266;10.542;2023-08-24T00:57:38;6.10;;;2.40;;
64959;SDS011;51487;52.266;10.542;2023-08-24T01:00:07;4.53;;;2.05;;
64959;SDS011;51487;52.266;10.542;2023-08-24T01:02:35;5.00;;;2.40;;
64959;SDS011;51487;52.266;10.542;2023-08-24T01:05:04;4.30;;;2.03;;
64959;SDS011;51487;52.266;10.542;2023-08-24T01:07:32;2.80;;;2.22;;
64959;SDS011;51487;52.266;10.542;2023-08-24T01:10:00;6.97;;;2.30;;
64959;SDS011;51487;52.266;10.542;2023-08-24T01:12:38;4.72;;;2.10;;
64959;SDS011;51487;52.266;10.542;2023-08-24T01:18:13;3.25;;;1.88;;
64959;SDS011;51487;52.266;10.542;2023-08-24T01:20:43;2.63;;;1.92;;
64959;SDS011;51487;52.266;10.542;2023-08-24T01:26:14;4.70;;;2.13;;
64959;SDS011;51487;52.266;10.542;2023-08-24T01:28:44;3.80;;;2.17;;
64959;SDS011;51487;52.266;10.542;2023-08-24T01:31:12;6.03;;;2.20;;
64959;SDS011;51487;52.266;10.542;2023-08-24T01:33:40;14.73;;;2.38;;
64959;SDS011;51487;52.266;10.542;2023-08-24T01:36:06;5.47;;;2.17;;
64959;SDS011;51487;52.266;10.542;2023-08-24T01:38:35;3.70;;;2.15;;
64959;SDS011;51487;52.266;10.542;2023-08-24T01:43:43;4.38;;;2.00;;
64959;SDS011;51487;52.266;10.542;2023-08-24T01:46:14;6.45;;;2.63;;
64959;SDS011;51487;52.266;10.542;2023-08-24T01:48:43;3.45;;;2.33;;
64959;SDS011;51487;52.266;10.542;2023-08-24T01:51:09;4.03;;;2.00;;
64959;SDS011;51487;52.266;10.542;2023-08-24T01:53:36;5.90;;;2.30;;
64959;SDS011;51487;52.266;10.542;2023-08-24T01:56:10;5.45;;;2.47;;
64959;SDS011;51487;52.266;10.542;2023-08-24T01:58:41;2.97;;;2.13;;
64959;SDS011;51487;52.266;10.542;2023-08-24T02:01:07;5.03;;;2.30;;
64959;SDS011;51487;52.266;10.542;2023-08-24T02:03:34;7.30;;;2.47;;
64959;SDS011;51487;52.266;10.542;2023-08-24T02:05:59;5.28;;;2.08;;
64959;SDS011;51487;52.266;10.542;2023-08-24T02:08:25;4.70;;;2.50;;
64959;SDS011;51487;52.266;10.542;2023-08-24T02:10:51;4.25;;;2.28;;
64959;SDS011;51487;52.266;10.542;2023-08-24T02:13:20;4.90;;;2.22;;
64959;SDS011;51487;52.266;10.542;2023-08-24T02:15:46;6.32;;;2.58;;
64959;SDS011;51487;52.266;10.542;2023-08-24T02:18:11;3.67;;;2.50;;
64959;SDS011;51487;52.266;10.542;2023-08-24T02:20:37;4.68;;;2.40;;
64959;SDS011;51487;52.266;10.542;2023-08-24T02:23:03;6.53;;;2.30;;
64959;SDS011;51487;52.266;10.542;2023-08-24T02:25:30;4.82;;;2.38;;
64959;SDS011;51487;52.266;10.542;2023-08-24T02:27:56;4.72;;;2.42;;
64959;SDS011;51487;52.266;10.542;2023-08-24T02:30:22;5.20;;;2.65;;
64959;SDS011;51487;52.266;10.542;2023-08-24T02:32:48;5.03;;;2.47;;
64959;SDS011;51487;52.266;10.542;2023-08-24T02:35:13;3.63;;;2.20;;
64959;SDS011;51487;52.266;10.542;2023-08-24T02:37:39;5.32;;;2.45;;
64959;SDS011;51487;52.266;10.542;2023-08-24T02:40:04;4.15;;;2.25;;
64959;SDS011;51487;52.266;10.542;2023-08-24T02:42:31;6.55;;;2.78;;
64959;SDS011;51487;52.266;10.542;2023-08-24T02:44:59;4.88;;;2.15;;
64959;SDS011;51487;52.266;10.542;2023-08-24T02:47:24;9.55;;;2.40;;
64959;SDS011;51487;52.266;10.542;2023-08-24T02:49:50;7.97;;;2.40;;
64959;SDS011;51487;52.266;10.542;2023-08-24T02:52:15;6.60;;;2.45;;
64959;SDS011;51487;52.266;10.542;2023-08-24T02:54:41;4.15;;;2.22;;
64959;SDS011;51487;52.266;10.542;2023-08-24T02:57:07;3.75;;;2.20;;
64959;SDS011;51487;52.266;10.542;2023-08-24T02:59:32;8.15;;;2.88;;
64959;SDS011;51487;52.266;10.542;2023-08-24T03:01:58;5.43;;;2.67;;
64959;SDS011;51487;52.266;10.542;2023-08-24T03:04:23;3.92;;;2.13;;
64959;SDS011;51487;52.266;10.542;2023-08-24T03:06:49;4.40;;;2.60;;
64959;SDS011;51487;52.266;10.542;2023-08-24T03:09:14;4.97;;;2.40;;
64959;SDS011;51487;52.266;10.542;2023-08-24T03:11:40;6.63;;;2.72;;
64959;SDS011;51487;52.266;10.542;2023-08-24T03:14:06;5.32;;;2.70;;
64959;SDS011;51487;52.266;10.542;2023-08-24T03:16:32;10.05;;;2.58;;
64959;SDS011;51487;52.266;10.542;2023-08-24T03:18:58;5.90;;;2.85;;
64959;SDS011;51487;52.266;10.542;2023-08-24T03:21:23;6.10;;;2.75;;
64959;SDS011;51487;52.266;10.542;2023-08-24T03:23:49;7.15;;;2.70;;
64959;SDS011;51487;52.266;10.542;2023-08-24T03:26:14;5.40;;;2.42;;
64959;SDS011;51487;52.266;10.542;2023-08-24T03:28:41;4.47;;;2.70;;
64959;SDS011;51487;52.266;10.542;2023-08-24T03:31:07;5.88;;;2.58;;
64959;SDS011;51487;52.266;10.542;2023-08-24T03:33:33;8.57;;;2.78;;
64959;SDS011;51487;52.266;10.542;2023-08-24T03:35:59;6.18;;;3.10;;
64959;SDS011;51487;52.266;10.542;2023-08-24T03:38:27;4.63;;;2.65;;
64959;SDS011;51487;52.266;10.542;2023-08-24T03:40:59;7.55;;;2.97;;
64959;SDS011;51487;52.266;10.542;2023-08-24T03:43:31;7.97;;;2.70;;
64959;SDS011;51487;52.266;10.542;2023-08-24T03:45:58;5.55;;;2.58;;
64959;SDS011;51487;52.266;10.542;2023-08-24T03:48:24;2.85;;;2.38;;
64959;SDS011;51487;52.266;10.542;2023-08-24T03:50:53;8.48;;;2.90;;
64959;SDS011;51487;52.266;10.542;2023-08-24T03:53:20;6.22;;;2.63;;
64959;SDS011;51487;52.266;10.542;2023-08-24T03:55:49;5.55;;;2.65;;
64959;SDS011;51487;52.266;10.542;2023-08-24T03:58:17;5.70;;;3.13;;
64959;SDS011;51487;52.266;10.542;2023-08-24T04:00:43;7.30;;;2.95;;
64959;SDS011;51487;52.266;10.542;2023-08-24T04:03:12;4.25;;;3.10;;
64959;SDS011;51487;52.266;10.542;2023-08-24T04:05:38;6.25;;;3.05;;
64959;SDS011;51487;52.266;10.542;2023-08-24T04:08:03;4.57;;;2.67;;
64959;SDS011;51487;52.266;10.542;2023-08-24T04:10:29;5.40;;;2.80;;
64959;SDS011;51487;52.266;10.542;2023-08-24T04:12:55;9.30;;;3.30;;
64959;SDS011;51487;52.266;10.542;2023-08-24T04:15:21;5.68;;;2.65;;
64959;SDS011;51487;52.266;10.542;2023-08-24T04:17:47;6.13;;;3.30;;
64959;SDS011;51487;52.266;10.542;2023-08-24T04:20:13;5.43;;;2.90;;
64959;SDS011;51487;52.266;10.542;2023-08-24T04:22:39;7.40;;;3.00;;
64959;SDS011;51487;52.266;10.542;2023-08-24T04:25:04;6.32;;;3.45;;
64959;SDS011;51487;52.266;10.542;2023-08-24T04:27:31;6.68;;;3.20;;
64959;SDS011;51487;52.266;10.542;2023-08-24T04:29:57;5.80;;;3.15;;
64959;SDS011;51487;52.266;10.542;2023-08-24T04:32:23;9.50;;;3.55;;
64959;SDS011;51487;52.266;10.542;2023-08-24T04:34:49;6.07;;;3.17;;
64959;SDS011;51487;52.266;10.542;2023-08-24T04:37:14;7.63;;;3.08;;
64959;SDS011;51487;52.266;10.542;2023-08-24T04:39:40;4.20;;;3.00;;
64959;SDS011;51487;52.266;10.542;2023-08-24T04:42:06;8.48;;;2.88;;
64959;SDS011;51487;52.266;10.542;2023-08-24T04:44:32;7.22;;;3.65;;
64959;SDS011;51487;52.266;10.542;2023-08-24T04:46:58;9.82;;;3.67;;
64959;SDS011;51487;52.266;10.542;2023-08-24T04:49:23;6.85;;;2.92;;
64959;SDS011;51487;52.266;10.542;2023-08-24T04:51:49;6.65;;;3.20;;
64959;SDS011;51487;52.266;10.542;2023-08-24T04:54:14;6.20;;;3.15;;
64959;SDS011;51487;52.266;10.542;2023-08-24T04:56:40;5.45;;;3.00;;
64959;SDS011;51487;52.266;10.542;2023-08-24T04:59:06;6.40;;;2.85;;
64959;SDS011;51487;52.266;10.542;2023-08-24T05:01:33;5.22;;;3.17;;
64959;SDS011;51487;52.266;10.542;2023-08-24T05:03:59;7.68;;;3.28;;
64959;SDS011;51487;52.266;10.542;2023-08-24T05:06:25;8.18;;;3.20;;
64959;SDS011;51487;52.266;10.542;2023-08-24T05:08:50;7.15;;;3.13;;
64959;SDS011;51487;52.266;10.542;2023-08-24T05:11:17;5.93;;;3.22;;
64959;SDS011;51487;52.266;10.542;2023-08-24T05:13:47;5.93;;;3.35;;
64959;SDS011;51487;52.266;10.542;2023-08-24T05:16:12;9.10;;;3.25;;
64959;SDS011;51487;52.266;10.542;2023-08-24T05:18:38;7.53;;;3.22;;
64959;SDS011;51487;52.266;10.542;2023-08-24T05:21:05;5.13;;;3.05;;
64959;SDS011;51487;52.266;10.542;2023-08-24T05:23:31;5.47;;;2.72;;
64959;SDS011;51487;52.266;10.542;2023-08-24T05:25:58;5.38;;;3.30;;
64959;SDS011;51487;52.266;10.542;2023-08-24T05:28:25;7.93;;;3.15;;
64959;SDS011;51487;52.266;10.542;2023-08-24T05:30:53;6.75;;;3.30;;
64959;SDS011;51487;52.266;10.542;2023-08-24T05:33:20;6.28;;;2.88;;
64959;SDS011;51487;52.266;10.542;2023-08-24T05:35:47;6.07;;;2.80;;
64959;SDS011;51487;52.266;10.542;2023-08-24T05:38:13;4.78;;;3.25;;
64959;SDS011;51487;52.266;10.542;2023-08-24T05:40:40;6.15;;;3.40;;
64959;SDS011;51487;52.266;10.542;2023-08-24T05:43:08;6.50;;;2.85;;
64959;SDS011;51487;52.266;10.542;2023-08-24T05:45:34;6.97;;;3.28;;
64959;SDS011;51487;52.266;10.542;2023-08-24T05:48:01;6.43;;;3.25;;
64959;SDS011;51487;52.266;10.542;2023-08-24T05:50:27;7.22;;;3.50;;
64959;SDS011;51487;52.266;10.542;2023-08-24T05:52:52;5.78;;;3.42;;
64959;SDS011;51487;52.266;10.542;2023-08-24T05:55:18;7.18;;;3.42;;
64959;SDS011;51487;52.266;10.542;2023-08-24T05:57:44;7.50;;;3.30;;
64959;SDS011;51487;52.266;10.542;2023-08-24T06:00:10;7.60;;;3.70;;
64959;SDS011;51487;52.266;10.542;2023-08-24T06:02:36;7.88;;;3.50;;
64959;SDS011;51487;52.266;10.542;2023-08-24T06:05:02;9.23;;;3.75;;
64959;SDS011;51487;52.266;10.542;2023-08-24T06:07:28;7.18;;;3.65;;
64959;SDS011;51487;52.266;10.542;2023-08-24T06:09:56;8.98;;;3.88;;
64959;SDS011;51487;52.266;10.542;2023-08-24T06:12:22;6.57;;;3.63;;
64959;SDS011;51487;52.266;10.542;2023-08-24T06:14:47;7.78;;;3.75;;
64959;SDS011;51487;52.266;10.542;2023-08-24T06:17:13;9.27;;;4.25;;
64959;SDS011;51487;52.266;10.542;2023-08-24T06:19:38;6.78;;;3.88;;
64959;SDS011;51487;52.266;10.542;2023-08-24T06:22:04;10.18;;;4.15;;
64959;SDS011;51487;52.266;10.542;2023-08-24T06:24:29;8.32;;;4.25;;
64959;SDS011;51487;52.266;10.542;2023-08-24T06:26:55;8.80;;;3.58;;
64959;SDS011;51487;52.266;10.542;2023-08-24T06:29:21;6.80;;;3.45;;
64959;SDS011;51487;52.266;10.542;2023-08-24T06:31:46;8.25;;;3.72;;
64959;SDS011;51487;52.266;10.542;2023-08-24T06:34:11;6.78;;;3.63;;
64959;SDS011;51487;52.266;10.542;2023-08-24T06:36:37;7.88;;;3.17;;
64959;SDS011;51487;52.266;10.542;2023-08-24T06:39:02;9.07;;;3.35;;
64959;SDS011;51487;52.266;10.542;2023-08-24T06:41:32;8.15;;;3.70;;
64959;SDS011;51487;52.266;10.542;2023-08-24T06:44:01;8.25;;;3.50;;
64959;SDS011;51487;52.266;10.542;2023-08-24T06:46:27;7.80;;;3.63;;
64959;SDS011;51487;52.266;10.542;2023-08-24T06:48:54;8.65;;;3.45;;
64959;SDS011;51487;52.266;10.542;2023-08-24T06:51:19;9.68;;;4.22;;
64959;SDS011;51487;52.266;10.542;2023-08-24T06:53:45;10.43;;;3.70;;
64959;SDS011;51487;52.266;10.542;2023-08-24T06:56:11;5.55;;;3.65;;
64959;SDS011;51487;52.266;10.542;2023-08-24T06:58:39;5.82;;;3.10;;
64959;SDS011;51487;52.266;10.542;2023-08-24T07:01:04;8.98;;;4.40;;
64959;SDS011;51487;52.266;10.542;2023-08-24T07:03:32;6.93;;;3.50;;
64959;SDS011;51487;52.266;10.542;2023-08-24T07:05:58;6.70;;;3.78;;
64959;SDS011;51487;52.266;10.542;2023-08-24T07:08:24;10.05;;;3.65;;
64959;SDS011;51487;52.266;10.542;2023-08-24T07:10:50;16.88;;;4.25;;
64959;SDS011;51487;52.266;10.542;2023-08-24T07:13:15;9.15;;;4.47;;
64959;SDS011;51487;52.266;10.542;2023-08-24T07:15:41;14.93;;;4.07;;
64959;SDS011;51487;52.266;10.542;2023-08-24T07:18:07;10.38;;;3.70;;
64959;SDS011;51487;52.266;10.542;2023-08-24T07:20:34;10.13;;;3.97;;
64959;SDS011;51487;52.266;10.542;2023-08-24T07:23:00;7.88;;;3.80;;
64959;SDS011;51487;52.266;10.542;2023-08-24T07:25:26;8.82;;;3.53;;
64959;SDS011;51487;52.266;10.542;2023-08-24T07:27:53;10.13;;;4.30;;
64959;SDS011;51487;52.266;10.542;2023-08-24T07:30:23;12.65;;;4.20;;
64959;SDS011;51487;52.266;10.542;2023-08-24T07:32:52;5.93;;;4.00;;
64959;SDS011;51487;52.266;10.542;2023-08-24T07:35:19;10.20;;;3.63;;
64959;SDS011;51487;52.266;10.542;2023-08-24T07:37:46;9.35;;;3.70;;
64959;SDS011;51487;52.266;10.542;2023-08-24T07:40:13;13.57;;;4.13;;
64959;SDS011;51487;52.266;10.542;2023-08-24T07:42:45;12.55;;;4.72;;
64959;SDS011;51487;52.266;10.542;2023-08-24T07:45:13;10.65;;;4.80;;
64959;SDS011;51487;52.266;10.542;2023-08-24T07:47:39;13.70;;;4.78;;
64959;SDS011;51487;52.266;10.542;2023-08-24T07:50:05;14.98;;;4.97;;
64959;SDS011;51487;52.266;10.542;2023-08-24T07:52:32;13.70;;;4.32;;
64959;SDS011;51487;52.266;10.542;2023-08-24T07:54:58;11.02;;;4.90;;
64959;SDS011;51487;52.266;10.542;2023-08-24T07:57:25;8.73;;;4.43;;
64959;SDS011;51487;52.266;10.542;2023-08-24T07:59:51;11.52;;;5.32;;
64959;SDS011;51487;52.266;10.542;2023-08-24T08:02:18;12.88;;;5.07;;
64959;SDS011;51487;52.266;10.542;2023-08-24T08:04:44;16.92;;;5.20;;
64959;SDS011;51487;52.266;10.542;2023-08-24T08:07:10;11.02;;;5.40;;
64959;SDS011;51487;52.266;10.542;2023-08-24T08:09:36;9.98;;;4.70;;
64959;SDS011;51487;52.266;10.542;2023-08-24T08:12:02;8.02;;;4.80;;
64959;SDS011;51487;52.266;10.542;2023-08-24T08:14:29;11.07;;;5.22;;
64959;SDS011;51487;52.266;10.542;2023-08-24T08:16:55;13.10;;;4.85;;
64959;SDS011;51487;52.266;10.542;2023-08-24T08:19:22;9.75;;;5.00;;
64959;SDS011;51487;52.266;10.542;2023-08-24T08:21:50;9.52;;;5.00;;
64959;SDS011;51487;52.266;10.542;2023-08-24T08:24:16;8.68;;;4.72;;
64959;SDS011;51487;52.266;10.542;2023-08-24T08:26:41;7.15;;;4.60;;
64959;SDS011;51487;52.266;10.542;2023-08-24T08:29:07;10.05;;;5.07;;
64959;SDS011;51487;52.266;10.542;2023-08-24T08:31:32;9.18;;;4.72;;
64959;SDS011;51487;52.266;10.542;2023-08-24T08:33:58;10.25;;;4.65;;
64959;SDS011;51487;52.266;10.542;2023-08-24T08:36:23;10.90;;;5.03;;
64959;SDS011;51487;52.266;10.542;2023-08-24T08:38:49;12.13;;;5.28;;
64959;SDS011;51487;52.266;10.542;2023-08-24T08:41:15;9.45;;;4.75;;
64959;SDS011;51487;52.266;10.542;2023-08-24T08:43:43;12.10;;;5.63;;
64959;SDS011;51487;52.266;10.542;2023-08-24T08:46:09;15.80;;;6.05;;
64959;SDS011;51487;52.266;10.542;2023-08-24T08:48:36;13.10;;;5.20;;
64959;SDS011;51487;52.266;10.542;2023-08-24T08:51:03;10.15;;;5.22;;
64959;SDS011;51487;52.266;10.542;2023-08-24T08:53:30;13.05;;;4.45;;
64959;SDS011;51487;52.266;10.542;2023-08-24T08:55:57;9.63;;;5.35;;
64959;SDS011;51487;52.266;10.542;2023-08-24T08:58:28;8.07;;;4.03;;
64959;SDS011;51487;52.266;10.542;2023-08-24T09:00:55;9.57;;;4.35;;
64959;SDS011;51487;52.266;10.542;2023-08-24T09:03:21;8.50;;;4.30;;
64959;SDS011;51487;52.266;10.542;2023-08-24T09:05:47;8.05;;;4.60;;
64959;SDS011;51487;52.266;10.542;2023-08-24T09:08:13;7.07;;;4.10;;
64959;SDS011;51487;52.266;10.542;2023-08-24T09:10:41;8.02;;;4.68;;
64959;SDS011;51487;52.266;10.542;2023-08-24T09:13:07;10.77;;;4.13;;
64959;SDS011;51487;52.266;10.542;2023-08-24T09:15:34;7.65;;;3.72;;
64959;SDS011;51487;52.266;10.542;2023-08-24T09:18:03;7.13;;;3.83;;
64959;SDS011;51487;52.266;10.542;2023-08-24T09:20:29;6.53;;;3.40;;
64959;SDS011;51487;52.266;10.542;2023-08-24T09:22:55;5.88;;;3.50;;
64959;SDS011;51487;52.266;10.542;2023-08-24T09:25:22;5.50;;;3.17;;
64959;SDS011;51487;52.266;10.542;2023-08-24T09:28:02;5.85;;;3.33;;
64959;SDS011;51487;52.266;10.542;2023-08-24T09:30:32;5.30;;;3.08;;
64959;SDS011;51487;52.266;10.542;2023-08-24T09:33:03;5.82;;;3.33;;
64959;SDS011;51487;52.266;10.542;2023-08-24T09:35:35;5.72;;;3.40;;
64959;SDS011;51487;52.266;10.542;2023-08-24T09:38:21;6.65;;;3.22;;
64959;SDS011;51487;52.266;10.542;2023-08-24T09:40:51;7.68;;;3.42;;
64959;SDS011;51487;52.266;10.542;2023-08-24T09:43:20;7.07;;;3.10;;
64959;SDS011;51487;52.266;10.542;2023-08-24T09:45:51;8.38;;;3.50;;
64959;SDS011;51487;52.266;10.542;2023-08-24T09:48:18;7.00;;;2.90;;
64959;SDS011;51487;52.266;10.542;2023-08-24T09:50:45;7.50;;;3.22;;
64959;SDS011;51487;52.266;10.542;2023-08-24T09:53:15;8.52;;;3.55;;
64959;SDS011;51487;52.266;10.542;2023-08-24T09:55:55;4.38;;;2.83;;
64959;SDS011;51487;52.266;10.542;2023-08-24T09:58:28;8.35;;;2.85;;
64959;SDS011;51487;52.266;10.542;2023-08-24T10:00:54;7.95;;;2.90;;
64959;SDS011;51487;52.266;10.542;2023-08-24T10:03:21;7.07;;;3.35;;
64959;SDS011;51487;52.266;10.542;2023-08-24T10:05:51;7.70;;;3.25;;
64959;SDS011;51487;52.266;10.542;2023-08-24T10:08:20;5.88;;;2.88;;
64959;SDS011;51487;52.266;10.542;2023-08-24T10:10:55;9.38;;;3.25;;
64959;SDS011;51487;52.266;10.542;2023-08-24T10:16:12;5.47;;;3.10;;
64959;SDS011;51487;52.266;10.542;2023-08-24T10:18:40;6.10;;;2.63;;
64959;SDS011;51487;52.266;10.542;2023-08-24T10:21:07;5.35;;;2.72;;
64959;SDS011;51487;52.266;10.542;2023-08-24T10:23:34;8.95;;;2.55;;
64959;SDS011;51487;52.266;10.542;2023-08-24T10:26:02;6.95;;;2.88;;
64959;SDS011;51487;52.266;10.542;2023-08-24T10:28:28;3.42;;;2.72;;
64959;SDS011;51487;52.266;10.542;2023-08-24T10:30:57;9.27;;;2.80;;
64959;SDS011;51487;52.266;10.542;2023-08-24T10:33:25;4.07;;;2.92;;
64959;SDS011;51487;52.266;10.542;2023-08-24T10:35:52;5.53;;;2.40;;
64959;SDS011;51487;52.266;10.542;2023-08-24T10:38:22;8.02;;;2.88;;
64959;SDS011;51487;52.266;10.542;2023-08-24T10:40:52;6.60;;;3.05;;
64959;SDS011;51487;52.266;10.542;2023-08-24T10:43:19;4.68;;;2.50;;
64959;SDS011;51487;52.266;10.542;2023-08-24T10:48:28;6.25;;;2.63;;
64959;SDS011;51487;52.266;10.542;2023-08-24T10:53:55;4.60;;;2.58;;
64959;SDS011;51487;52.266;10.542;2023-08-24T10:56:29;4.60;;;2.42;;
64959;SDS011;51487;52.266;10.542;2023-08-24T10:59:11;6.00;;;2.47;;
64959;SDS011;51487;52.266;10.542;2023-08-24T11:01:43;7.03;;;2.40;;
64959;SDS011;51487;52.266;10.542;2023-08-24T11:04:20;4.35;;;2.35;;
64959;SDS011;51487;52.266;10.542;2023-08-24T11:06:53;8.30;;;2.65;;
64959;SDS011;51487;52.266;10.542;2023-08-24T11:09:44;4.68;;;2.28;;
64959;SDS011;51487;52.266;10.542;2023-08-24T11:12:13;10.93;;;2.50;;
64959;SDS011;51487;52.266;10.542;2023-08-24T11:14:51;5.65;;;2.47;;
64959;SDS011;51487;52.266;10.542;2023-08-24T11:17:23;6.22;;;2.50;;
64959;SDS011;51487;52.266;10.542;2023-08-24T11:19:54;3.90;;;2.28;;
64959;SDS011;51487;52.266;10.542;2023-08-24T11:22:20;5.32;;;2.50;;
64959;SDS011;51487;52.266;10.542;2023-08-24T11:24:46;8.25;;;2.42;;
64959;SDS011;51487;52.266;10.542;2023-08-24T11:27:12;6.28;;;2.30;;
64959;SDS011;51487;52.266;10.542;2023-08-24T11:29:38;5.82;;;2.80;;
64959;SDS011;51487;52.266;10.542;2023-08-24T11:32:03;7.78;;;2.20;;
64959;SDS011;51487;52.266;10.542;2023-08-24T11:34:30;6.22;;;2.45;;
64959;SDS011;51487;52.266;10.542;2023-08-24T11:36:56;3.35;;;2.05;;
64959;SDS011;51487;52.266;10.542;2023-08-24T11:39:22;4.68;;;2.33;;
64959;SDS011;51487;52.266;10.542;2023-08-24T11:44:25;2.55;;;2.08;;
64959;SDS011;51487;52.266;10.542;2023-08-24T11:46:50;4.65;;;2.53;;
64959;SDS011;51487;52.266;10.542;2023-08-24T11:49:16;5.57;;;2.05;;
64959;SDS011;51487;52.266;10.542;2023-08-24T11:51:42;4.20;;;2.40;;
64959;SDS011;51487;52.266;10.542;2023-08-24T11:54:07;4.40;;;2.22;;
64959;SDS011;51487;52.266;10.542;2023-08-24T11:56:34;4.07;;;2.40;;
64959;SDS011;51487;52.266;10.542;2023-08-24T11:59:06;6.15;;;2.30;;
64959;SDS011;51487;52.266;10.542;2023-08-24T12:01:41;3.13;;;2.00;;
64959;SDS011;51487;52.266;10.542;2023-08-24T12:04:08;5.93;;;2.30;;
64959;SDS011;51487;52.266;10.542;2023-08-24T12:06:34;4.10;;;2.30;;
64959;SDS011;51487;52.266;10.542;2023-08-24T12:09:00;5.68;;;2.30;;
64959;SDS011;51487;52.266;10.542;2023-08-24T12:11:27;5.53;;;2.75;;
64959;SDS011;51487;52.266;10.542;2023-08-24T12:13:54;5.93;;;2.38;;
64959;SDS011;51487;52.266;10.542;2023-08-24T12:16:21;5.55;;;2.63;;
64959;SDS011;51487;52.266;10.542;2023-08-24T12:18:51;5.18;;;2.25;;
64959;SDS011;51487;52.266;10.542;2023-08-24T12:21:20;3.83;;;2.45;;
64959;SDS011;51487;52.266;10.542;2023-08-24T12:23:58;3.92;;;2.10;;
64959;SDS011;51487;52.266;10.542;2023-08-24T12:26:26;6.03;;;2.60;;
64959;SDS011;51487;52.266;10.542;2023-08-24T12:28:53;5.10;;;2.30;;
64959;SDS011;51487;52.266;10.542;2023-08-24T12:31:27;3.60;;;2.20;;
64959;SDS011;51487;52.266;10.542;2023-08-24T12:34:00;6.70;;;2.10;;
64959;SDS011;51487;52.266;10.542;2023-08-24T12:36:33;5.25;;;2.60;;
64959;SDS011;51487;52.266;10.542;2023-08-24T12:39:01;3.70;;;2.37;;
64959;SDS011;51487;52.266;10.542;2023-08-24T12:41:32;2.95;;;2.20;;
64959;SDS011;51487;52.266;10.542;2023-08-24T12:43:59;4.75;;;2.55;;
64959;SDS011;51487;52.266;10.542;2023-08-24T12:46:29;6.25;;;2.33;;
64959;SDS011;51487;52.266;10.542;2023-08-24T12:49:04;3.95;;;2.20;;
64959;SDS011;51487;52.266;10.542;2023-08-24T12:51:29;6.00;;;2.28;;
64959;SDS011;51487;52.266;10.542;2023-08-24T12:53:55;6.05;;;2.47;;
64959;SDS011;51487;52.266;10.542;2023-08-24T12:56:20;3.05;;;2.17;;
64959;SDS011;51487;52.266;10.542;2023-08-24T12:58:46;6.43;;;2.00;;
64959;SDS011;51487;52.266;10.542;2023-08-24T13:01:12;3.08;;;2.00;;
64959;SDS011;51487;52.266;10.542;2023-08-24T13:03:37;5.55;;;2.08;;
64959;SDS011;51487;52.266;10.542;2023-08-24T13:06:04;5.47;;;2.30;;
64959;SDS011;51487;52.266;10.542;2023-08-24T13:08:31;6.10;;;2.33;;
64959;SDS011;51487;52.266;10.542;2023-08-24T13:10:56;3.55;;;2.03;;
64959;SDS011;51487;52.266;10.542;2023-08-24T13:13:22;4.55;;;2.10;;
64959;SDS011;51487;52.266;10.542;2023-08-24T13:15:48;4.55;;;2.30;;
64959;SDS011;51487;52.266;10.542;2023-08-24T13:18:15;3.85;;;2.13;;
64959;SDS011;51487;52.266;10.542;2023-08-24T13:20:41;5.68;;;2.60;;
64959;SDS011;51487;52.266;10.542;2023-08-24T13:23:07;2.38;;;2.00;;
64959;SDS011;51487;52.266;10.542;2023-08-24T13:25:33;5.47;;;2.35;;
64959;SDS011;51487;52.266;10.542;2023-08-24T13:27:58;3.80;;;2.17;;
64959;SDS011;51487;52.266;10.542;2023-08-24T13:30:24;3.65;;;2.15;;
64959;SDS011;51487;52.266;10.542;2023-08-24T13:32:49;3.72;;;2.17;;
64959;SDS011;51487;52.266;10.542;2023-08-24T13:35:15;6.90;;;2.15;;
64959;SDS011;51487;52.266;10.542;2023-08-24T13:37:40;2.35;;;1.88;;
64959;SDS011;51487;52.266;10.542;2023-08-24T13:40:06;2.90;;;1.98;;
64959;SDS011;51487;52.266;10.542;2023-08-24T13:42:33;4.93;;;2.00;;
64959;SDS011;51487;52.266;10.542;2023-08-24T13:44:58;6.35;;;2.10;;
64959;SDS011;51487;52.266;10.542;2023-08-24T13:47:24;3.58;;;2.10;;
64959;SDS011;51487;52.266;10.542;2023-08-24T13:49:49;4.70;;;2.10;;
64959;SDS011;51487;52.266;10.542;2023-08-24T13:52:15;7.45;;;2.78;;
64959;SDS011;51487;52.266;10.542;2023-08-24T13:54:41;2.83;;;1.88;;
64959;SDS011;51487;52.266;10.542;2023-08-24T13:57:08;4.38;;;2.10;;
64959;SDS011;51487;52.266;10.542;2023-08-24T13:59:33;3.97;;;1.90;;
64959;SDS011;51487;52.266;10.542;2023-08-24T14:01:59;4.05;;;1.75;;
64959;SDS011;51487;52.266;10.542;2023-08-24T14:04:24;5.35;;;2.00;;
64959;SDS011;51487;52.266;10.542;2023-08-24T14:06:50;5.82;;;1.90;;
64959;SDS011;51487;52.266;10.542;2023-08-24T14:09:15;5.22;;;2.00;;
64959;SDS011;51487;52.266;10.542;2023-08-24T14:11:41;4.38;;;1.92;;
64959;SDS011;51487;52.266;10.542;2023-08-24T14:14:07;3.80;;;1.80;;
64959;SDS011;51487;52.266;10.542;2023-08-24T14:16:33;3.33;;;1.73;;
64959;SDS011;51487;52.266;10.542;2023-08-24T14:18:58;3.30;;;1.83;;
64959;SDS011;51487;52.266;10.542;2023-08-24T14:21:24;6.05;;;2.42;;
64959;SDS011;51487;52.266;10.542;2023-08-24T14:23:49;4.28;;;1.90;;
64959;SDS011;51487;52.266;10.542;2023-08-24T14:26:15;5.25;;;2.00;;
64959;SDS011;51487;52.266;10.542;2023-08-24T14:31:26;2.45;;;1.85;;
64959;SDS011;51487;52.266;10.542;2023-08-24T14:33:54;4.60;;;1.90;;
64959;SDS011;51487;52.266;10.542;2023-08-24T14:36:20;7.50;;;1.90;;
64959;SDS011;51487;52.266;10.542;2023-08-24T14:38:49;5.55;;;1.80;;
64959;SDS011;51487;52.266;10.542;2023-08-24T14:41:17;3.60;;;1.83;;
64959;SDS011;51487;52.266;10.542;2023-08-24T14:43:43;6.70;;;2.00;;
64959;SDS011;51487;52.266;10.542;2023-08-24T14:46:09;3.88;;;1.95;;
64959;SDS011;51487;52.266;10.542;2023-08-24T14:48:35;10.45;;;2.28;;
64959;SDS011;51487;52.266;10.542;2023-08-24T14:51:00;3.30;;;2.00;;
64959;SDS011;51487;52.266;10.542;2023-08-24T14:53:27;7.50;;;1.95;;
64959;SDS011;51487;52.266;10.542;2023-08-24T14:55:54;4.80;;;1.80;;